Sunny Isles Beach, Florida
Current Conditions -  °F | °C
As of 11:53 AM on Saturday 20 Dec 2014 (Local Time) from KHWO Reporting Station
Broken Clouds Broken Clouds  
Wind Chill: 78°   Ceiling: 3800
Heat Index: 80°   Visibility: 10mi
Dew Point: 61°   Wind: 12mph
Humidity: 56%   Direction: 120°ESE
Pressure: 30.1"   Gusts: NA
Location:  25.9339°N, 80.1467°W
Report Text: KHWO 201653Z 12010KT 10SM BKN038 26/16 A3010 RMK AO2 SLP191 T02560161
Loading
Personal Weather Stations






























Interactive Weather Map New forecast layout! Learn more

10-Day Weather Forecast

Advertisements
Track Severe Weather on mobile